Terminal Aerodrome Forecast
Issued by NWS

Home | Current Version | Previous Version | Text Only | Print | Product List | Glossary Off
Versions: 1 2 3 4 5 6 7 8 9 10 11 12 13 14 15 16 17 18

000
FTUS43 KICT 260520
TAFCNU
TAF
KCNU 260520Z 2606/2706 16009KT P6SM BKN200
     FM260800 17009KT P6SM SCT010
     FM261100 17009KT P6SM OVC009
     FM261600 17012KT P6SM BKN020
     FM261900 17016G23KT P6SM SCT030
     FM270100 16015G21KT P6SM VCTS BKN040CB=

USA.gov is the U.S. government's official web portal to all federal, state and local government web resources and services.